UNS100 SBSP-SBPV
Flight info
| Callsign | UNS100 |
|---|---|
| Flight time | 2h 51m |
| Altitude | 36000 |
| Route | GERTU UL201 UMDUM UM775 ANRIR UL655 DIKAL UL793 ISOLU |
| Aircraft | B720/M-SDFGHRWY/C |
Departure
| Time | 2026-04-19 23:22 |
|---|---|
| Airport | Congonhas–Deputado Freitas Nobre Airport (SBSP) |
Arrival
| Time | 2026-04-20 02:13 |
|---|---|
| Airport | Governador Jorge Teixeira de Oliveira International Airport (SBPV) |
| Time | Latitude | Longitude | Altitude | Speed | Heading |
|---|---|---|---|---|---|
| 2026-04-19 21:07 | -23.62287 | -46.66075 | 2587 ft | 0 kts | 267° |
| 2026-04-19 23:16 | -23.62286 | -46.66064 | 2591 ft | 2 kts | 268° |
| 2026-04-19 23:16 | -23.62286 | -46.66047 | 2591 ft | 2 kts | 268° |
| 2026-04-19 23:16 | -23.62286 | -46.66031 | 2591 ft | 2 kts | 283° |
| 2026-04-19 23:16 | -23.62292 | -46.66016 | 2592 ft | 2 kts | 308° |
| 2026-04-19 23:17 | -23.62299 | -46.66008 | 2592 ft | 0 kts | 325° |
| 2026-04-19 23:17 | -23.62305 | -46.66004 | 2593 ft | 0 kts | 327° |
| 2026-04-19 23:17 | -23.62302 | -46.66007 | 2592 ft | 2 kts | 327° |
| 2026-04-19 23:17 | -23.62283 | -46.66020 | 2591 ft | 0 kts | 327° |
| 2026-04-19 23:19 | -23.62281 | -46.66021 | 2591 ft | 1 kts | 327° |
| 2026-04-19 23:19 | -23.62260 | -46.66036 | 2590 ft | 5 kts | 327° |
| 2026-04-19 23:19 | -23.62215 | -46.66068 | 2587 ft | 9 kts | 327° |
| 2026-04-19 23:20 | -23.62199 | -46.66078 | 2586 ft | 4 kts | 337° |
| 2026-04-19 23:20 | -23.62147 | -46.66106 | 2582 ft | 11 kts | 329° |
| 2026-04-19 23:20 | -23.62056 | -46.66120 | 2572 ft | 16 kts | 49° |
| 2026-04-19 23:20 | -23.62063 | -46.66067 | 2574 ft | 0 kts | 146° |
| 2026-04-19 23:21 | -23.62080 | -46.66055 | 2576 ft | 22 kts | 146° |
| 2026-04-19 23:21 | -23.62439 | -46.65808 | 2604 ft | 98 kts | 148° |
| 2026-04-19 23:21 | -23.63203 | -46.65274 | 2646 ft | 159 kts | 146° |
| 2026-04-19 23:21 | -23.64214 | -46.64569 | 2992 ft | 185 kts | 148° |
| 2026-04-19 23:22 | -23.65373 | -46.63771 | 3289 ft | 203 kts | 148° |
| 2026-04-19 23:22 | -23.66644 | -46.62938 | 3776 ft | 225 kts | 156° |
| 2026-04-19 23:22 | -23.68255 | -46.62833 | 4473 ft | 243 kts | 188° |
| 2026-04-19 23:22 | -23.69974 | -46.62998 | 5350 ft | 251 kts | 184° |
| 2026-04-19 23:23 | -23.71712 | -46.63120 | 6244 ft | 255 kts | 190° |
| 2026-04-19 23:23 | -23.73242 | -46.64044 | 7059 ft | 262 kts | 225° |
| 2026-04-19 23:23 | -23.74210 | -46.65715 | 7937 ft | 263 kts | 237° |
| 2026-04-19 23:23 | -23.75175 | -46.67455 | 8454 ft | 278 kts | 237° |
| 2026-04-19 23:24 | -23.76194 | -46.69257 | 8243 ft | 278 kts | 236° |
| 2026-04-19 23:24 | -23.77234 | -46.71067 | 8235 ft | 277 kts | 236° |
| 2026-04-19 23:24 | -23.78280 | -46.72866 | 8247 ft | 277 kts | 236° |
| 2026-04-19 23:24 | -23.79309 | -46.74617 | 8539 ft | 277 kts | 235° |
| 2026-04-19 23:25 | -23.80362 | -46.76398 | 8908 ft | 280 kts | 235° |
| 2026-04-19 23:25 | -23.81422 | -46.78179 | 9434 ft | 282 kts | 235° |
| 2026-04-19 23:25 | -23.82489 | -46.79964 | 10003 ft | 284 kts | 235° |
| 2026-04-19 23:25 | -23.83583 | -46.81788 | 10579 ft | 287 kts | 234° |
| 2026-04-19 23:26 | -23.84684 | -46.83620 | 11154 ft | 290 kts | 234° |
| 2026-04-19 23:26 | -23.85760 | -46.85475 | 11723 ft | 293 kts | 240° |
| 2026-04-19 23:26 | -23.86136 | -46.87643 | 12175 ft | 304 kts | 271° |
| 2026-04-19 23:26 | -23.85494 | -46.89849 | 12670 ft | 312 kts | 296° |
| 2026-04-19 23:27 | -23.84390 | -46.91884 | 13226 ft | 313 kts | 297° |
| 2026-04-19 23:27 | -23.83252 | -46.93984 | 13798 ft | 318 kts | 297° |
| 2026-04-19 23:27 | -23.81872 | -46.96540 | 14030 ft | 363 kts | 298° |
| 2026-04-19 23:27 | -23.80323 | -46.99404 | 14284 ft | 399 kts | 298° |
| 2026-04-19 23:28 | -23.78674 | -47.02447 | 14623 ft | 408 kts | 298° |
| 2026-04-19 23:28 | -23.77005 | -47.05526 | 14986 ft | 411 kts | 298° |
| 2026-04-19 23:28 | -23.75295 | -47.08650 | 15358 ft | 413 kts | 301° |
| 2026-04-19 23:28 | -23.73006 | -47.11306 | 15686 ft | 420 kts | 322° |
| 2026-04-19 23:29 | -23.69907 | -47.12929 | 16023 ft | 426 kts | 344° |
| 2026-04-19 23:29 | -23.66542 | -47.13707 | 16389 ft | 427 kts | 346° |
| 2026-04-19 23:29 | -23.63109 | -47.14490 | 16762 ft | 428 kts | 347° |
| 2026-04-19 23:29 | -23.59701 | -47.15253 | 17138 ft | 431 kts | 347° |
| 2026-04-19 23:30 | -23.56255 | -47.16018 | 17527 ft | 434 kts | 347° |
| 2026-04-19 23:30 | -23.52818 | -47.16775 | 17924 ft | 438 kts | 347° |
| 2026-04-19 23:30 | -23.49309 | -47.17546 | 18321 ft | 440 kts | 347° |
| 2026-04-19 23:30 | -23.45805 | -47.18312 | 18724 ft | 444 kts | 347° |
| 2026-04-19 23:31 | -23.42242 | -47.19092 | 19133 ft | 446 kts | 347° |
| 2026-04-19 23:31 | -23.38703 | -47.19865 | 19549 ft | 449 kts | 347° |
| 2026-04-19 23:31 | -23.35619 | -47.20538 | 19918 ft | 452 kts | 347° |
| 2026-04-19 23:31 | -23.32506 | -47.21216 | 20331 ft | 454 kts | 347° |
| 2026-04-19 23:32 | -23.29397 | -47.21894 | 20967 ft | 458 kts | 347° |
| 2026-04-19 23:32 | -23.26247 | -47.22580 | 21630 ft | 463 kts | 347° |
| 2026-04-19 23:32 | -23.23047 | -47.23276 | 22313 ft | 469 kts | 347° |
| 2026-04-19 23:32 | -23.19868 | -47.23967 | 23011 ft | 473 kts | 347° |
| 2026-04-19 23:33 | -23.16607 | -47.24676 | 23751 ft | 477 kts | 347° |
| 2026-04-19 23:33 | -23.13362 | -47.25381 | 24500 ft | 480 kts | 347° |
| 2026-04-19 23:33 | -23.10057 | -47.26098 | 25268 ft | 483 kts | 346° |
| 2026-04-19 23:33 | -23.06770 | -47.26812 | 26040 ft | 486 kts | 346° |
| 2026-04-19 23:34 | -23.03409 | -47.27541 | 26833 ft | 489 kts | 346° |
| 2026-04-19 23:34 | -23.00107 | -47.28256 | 27619 ft | 491 kts | 346° |
| 2026-04-19 23:34 | -22.96715 | -47.28991 | 28419 ft | 494 kts | 346° |
| 2026-04-19 23:34 | -22.93339 | -47.29722 | 29215 ft | 496 kts | 346° |
| 2026-04-19 23:35 | -22.89980 | -47.30450 | 29961 ft | 498 kts | 346° |
| 2026-04-19 23:35 | -22.86573 | -47.31186 | 30681 ft | 499 kts | 346° |
| 2026-04-19 23:35 | -22.83145 | -47.31926 | 31388 ft | 501 kts | 345° |
| 2026-04-19 23:35 | -22.79722 | -47.32665 | 32076 ft | 503 kts | 345° |
| 2026-04-19 23:36 | -22.76286 | -47.33408 | 32749 ft | 504 kts | 345° |
| 2026-04-19 23:36 | -22.72856 | -47.34148 | 33426 ft | 506 kts | 344° |
| 2026-04-19 23:36 | -22.69386 | -47.34958 | 34126 ft | 504 kts | 339° |
| 2026-04-19 23:36 | -22.66164 | -47.36357 | 34795 ft | 497 kts | 326° |
| 2026-04-19 23:37 | -22.63306 | -47.38360 | 35473 ft | 492 kts | 319° |
| 2026-04-19 23:37 | -22.60518 | -47.40534 | 36162 ft | 493 kts | 318° |
| 2026-04-19 23:37 | -22.57726 | -47.42765 | 36119 ft | 507 kts | 317° |
| 2026-04-19 23:37 | -22.54914 | -47.45054 | 36094 ft | 508 kts | 316° |
| 2026-04-19 23:38 | -22.49263 | -47.49702 | 36097 ft | 509 kts | 317° |
| 2026-04-19 23:38 | -22.43618 | -47.54346 | 36095 ft | 508 kts | 316° |
| 2026-04-19 23:39 | -22.38549 | -47.59554 | 36097 ft | 501 kts | 309° |
| 2026-04-19 23:39 | -22.33627 | -47.64825 | 36096 ft | 501 kts | 309° |
| 2026-04-19 23:40 | -22.28664 | -47.70173 | 36118 ft | 502 kts | 309° |
| 2026-04-19 23:40 | -22.23733 | -47.75494 | 36128 ft | 501 kts | 309° |
| 2026-04-19 23:41 | -22.18822 | -47.80796 | 36128 ft | 502 kts | 309° |
| 2026-04-19 23:41 | -22.13897 | -47.86104 | 36131 ft | 501 kts | 309° |
| 2026-04-19 23:42 | -22.08934 | -47.91441 | 36141 ft | 499 kts | 309° |
| 2026-04-19 23:42 | -22.03985 | -47.96766 | 36127 ft | 500 kts | 309° |
| 2026-04-19 23:43 | -21.99091 | -48.02032 | 36130 ft | 499 kts | 309° |
| 2026-04-19 23:43 | -21.94174 | -48.07317 | 36122 ft | 499 kts | 309° |
| 2026-04-19 23:44 | -21.89230 | -48.12626 | 36113 ft | 501 kts | 309° |
| 2026-04-19 23:44 | -21.84309 | -48.17903 | 36104 ft | 501 kts | 308° |
| 2026-04-19 23:45 | -21.79379 | -48.23186 | 36102 ft | 500 kts | 309° |
| 2026-04-19 23:45 | -21.74444 | -48.28469 | 36097 ft | 500 kts | 308° |
| 2026-04-19 23:46 | -21.69512 | -48.33744 | 36092 ft | 500 kts | 309° |
| 2026-04-19 23:46 | -21.64582 | -48.39010 | 36088 ft | 499 kts | 309° |
| 2026-04-19 23:47 | -21.59672 | -48.44251 | 36086 ft | 500 kts | 309° |
| 2026-04-19 23:47 | -21.54747 | -48.49501 | 36082 ft | 498 kts | 309° |
| 2026-04-19 23:48 | -21.49835 | -48.54733 | 36081 ft | 499 kts | 309° |
| 2026-04-19 23:48 | -21.44887 | -48.59998 | 36083 ft | 499 kts | 309° |
| 2026-04-19 23:49 | -21.39964 | -48.65229 | 36082 ft | 500 kts | 309° |
| 2026-04-19 23:49 | -21.35028 | -48.70471 | 36096 ft | 499 kts | 309° |
| 2026-04-19 23:50 | -21.30079 | -48.75721 | 36100 ft | 500 kts | 309° |
| 2026-04-19 23:50 | -21.25159 | -48.80936 | 36101 ft | 500 kts | 309° |
| 2026-04-19 23:51 | -21.20201 | -48.86183 | 36106 ft | 500 kts | 309° |
| 2026-04-19 23:51 | -21.15268 | -48.91402 | 36105 ft | 500 kts | 309° |
| 2026-04-19 23:52 | -21.10120 | -48.96841 | 36104 ft | 498 kts | 309° |
| 2026-04-19 23:52 | -21.04601 | -49.02665 | 36106 ft | 499 kts | 309° |
| 2026-04-19 23:53 | -20.98881 | -49.08694 | 36101 ft | 500 kts | 309° |
| 2026-04-19 23:53 | -20.93183 | -49.14696 | 36098 ft | 500 kts | 309° |
| 2026-04-19 23:54 | -20.87758 | -49.20401 | 36084 ft | 499 kts | 309° |
| 2026-04-19 23:54 | -20.82817 | -49.25593 | 36086 ft | 500 kts | 309° |
| 2026-04-19 23:55 | -20.77853 | -49.30806 | 36085 ft | 501 kts | 309° |
| 2026-04-19 23:55 | -20.72889 | -49.36010 | 36083 ft | 499 kts | 309° |
| 2026-04-19 23:56 | -20.67930 | -49.41207 | 36078 ft | 499 kts | 309° |
| 2026-04-19 23:56 | -20.62977 | -49.46392 | 36068 ft | 500 kts | 309° |
| 2026-04-19 23:57 | -20.58018 | -49.51578 | 36067 ft | 500 kts | 309° |
| 2026-04-19 23:57 | -20.53068 | -49.56748 | 36065 ft | 499 kts | 309° |
| 2026-04-19 23:58 | -20.48112 | -49.61921 | 36070 ft | 499 kts | 309° |
| 2026-04-19 23:58 | -20.43135 | -49.67111 | 36084 ft | 501 kts | 309° |
| 2026-04-19 23:59 | -20.38143 | -49.72312 | 36075 ft | 501 kts | 309° |
| 2026-04-19 23:59 | -20.33187 | -49.77469 | 36073 ft | 501 kts | 309° |
| 2026-04-20 00:00 | -20.28214 | -49.82639 | 36067 ft | 499 kts | 309° |
| 2026-04-20 00:00 | -20.23234 | -49.87811 | 36056 ft | 500 kts | 309° |
| 2026-04-20 00:01 | -20.18241 | -49.92994 | 36050 ft | 501 kts | 309° |
| 2026-04-20 00:02 | -20.10766 | -50.00742 | 36049 ft | 500 kts | 310° |
| 2026-04-20 00:02 | -20.05799 | -50.05885 | 36052 ft | 501 kts | 309° |
| 2026-04-20 00:03 | -20.00789 | -50.11065 | 36061 ft | 500 kts | 309° |
| 2026-04-20 00:03 | -19.95810 | -50.16211 | 36062 ft | 499 kts | 309° |
| 2026-04-20 00:04 | -19.90828 | -50.21355 | 36060 ft | 501 kts | 309° |
| 2026-04-20 00:04 | -19.85845 | -50.26496 | 36049 ft | 501 kts | 309° |
| 2026-04-20 00:05 | -19.80842 | -50.31652 | 36047 ft | 500 kts | 310° |
| 2026-04-20 00:05 | -19.75849 | -50.36792 | 36046 ft | 500 kts | 310° |
| 2026-04-20 00:06 | -19.70857 | -50.41928 | 36040 ft | 500 kts | 310° |
| 2026-04-20 00:06 | -19.65844 | -50.47079 | 36044 ft | 501 kts | 310° |
| 2026-04-20 00:07 | -19.60859 | -50.52198 | 36044 ft | 502 kts | 310° |
| 2026-04-20 00:07 | -19.55839 | -50.57349 | 36039 ft | 501 kts | 310° |
| 2026-04-20 00:08 | -19.50816 | -50.62496 | 36034 ft | 500 kts | 310° |
| 2026-04-20 00:08 | -19.45809 | -50.67622 | 36043 ft | 502 kts | 310° |
| 2026-04-20 00:09 | -19.40807 | -50.72739 | 36040 ft | 502 kts | 310° |
| 2026-04-20 00:09 | -19.35779 | -50.77879 | 36033 ft | 504 kts | 311° |
| 2026-04-20 00:10 | -19.30734 | -50.83030 | 36039 ft | 505 kts | 311° |
| 2026-04-20 00:10 | -19.25699 | -50.88166 | 36037 ft | 503 kts | 311° |
| 2026-04-20 00:11 | -19.20657 | -50.93306 | 36042 ft | 505 kts | 311° |
| 2026-04-20 00:11 | -19.15598 | -50.98459 | 36050 ft | 504 kts | 311° |
| 2026-04-20 00:12 | -19.10555 | -51.03590 | 36055 ft | 505 kts | 311° |
| 2026-04-20 00:12 | -19.05498 | -51.08729 | 36053 ft | 503 kts | 311° |
| 2026-04-20 00:13 | -19.00442 | -51.13866 | 36057 ft | 505 kts | 311° |
| 2026-04-20 00:13 | -18.95397 | -51.18986 | 36053 ft | 505 kts | 311° |
| 2026-04-20 00:14 | -18.90317 | -51.24136 | 36052 ft | 505 kts | 311° |
| 2026-04-20 00:14 | -18.85270 | -51.29249 | 36049 ft | 505 kts | 311° |
| 2026-04-20 00:15 | -18.80212 | -51.34367 | 36054 ft | 504 kts | 311° |
| 2026-04-20 00:15 | -18.75131 | -51.39507 | 36056 ft | 504 kts | 311° |
| 2026-04-20 00:16 | -18.70058 | -51.44632 | 36061 ft | 505 kts | 311° |
| 2026-04-20 00:16 | -18.64997 | -51.49740 | 36064 ft | 505 kts | 311° |
| 2026-04-20 00:17 | -18.59920 | -51.54861 | 36067 ft | 506 kts | 311° |
| 2026-04-20 00:17 | -18.54826 | -51.59993 | 36071 ft | 505 kts | 311° |
| 2026-04-20 00:18 | -18.49747 | -51.65108 | 36080 ft | 505 kts | 311° |
| 2026-04-20 00:18 | -18.44667 | -51.70217 | 36089 ft | 505 kts | 311° |
| 2026-04-20 00:19 | -18.39588 | -51.75322 | 36094 ft | 507 kts | 311° |
| 2026-04-20 00:19 | -18.34507 | -51.80426 | 36107 ft | 506 kts | 312° |
| 2026-04-20 00:20 | -18.29422 | -51.85527 | 36119 ft | 507 kts | 311° |
| 2026-04-20 00:20 | -18.24305 | -51.90656 | 36128 ft | 507 kts | 311° |
| 2026-04-20 00:21 | -18.19206 | -51.95765 | 36134 ft | 508 kts | 312° |
| 2026-04-20 00:21 | -18.14067 | -52.00907 | 36141 ft | 509 kts | 312° |
| 2026-04-20 00:22 | -18.08962 | -52.06011 | 36123 ft | 508 kts | 311° |
| 2026-04-20 00:22 | -18.03827 | -52.11142 | 36117 ft | 507 kts | 312° |
| 2026-04-20 00:23 | -17.98909 | -52.16363 | 36108 ft | 501 kts | 302° |
| 2026-04-20 00:23 | -17.95331 | -52.22562 | 36108 ft | 496 kts | 296° |
| 2026-04-20 00:24 | -17.91875 | -52.28885 | 36115 ft | 496 kts | 296° |
| 2026-04-20 00:24 | -17.88461 | -52.35185 | 36107 ft | 497 kts | 295° |
| 2026-04-20 00:25 | -17.85051 | -52.41500 | 36106 ft | 497 kts | 295° |
| 2026-04-20 00:25 | -17.81670 | -52.47763 | 36100 ft | 497 kts | 295° |
| 2026-04-20 00:26 | -17.78248 | -52.54102 | 36097 ft | 498 kts | 295° |
| 2026-04-20 00:26 | -17.74852 | -52.60387 | 36101 ft | 498 kts | 295° |
| 2026-04-20 00:27 | -17.71451 | -52.66676 | 36119 ft | 497 kts | 296° |
| 2026-04-20 00:27 | -17.68023 | -52.73009 | 36132 ft | 497 kts | 296° |
| 2026-04-20 00:28 | -17.64629 | -52.79275 | 36140 ft | 497 kts | 296° |
| 2026-04-20 00:28 | -17.61215 | -52.85570 | 36133 ft | 497 kts | 296° |
| 2026-04-20 00:29 | -17.57796 | -52.91870 | 36118 ft | 497 kts | 296° |
| 2026-04-20 00:29 | -17.54370 | -52.98174 | 36110 ft | 497 kts | 296° |
| 2026-04-20 00:30 | -17.50966 | -53.04434 | 36100 ft | 496 kts | 296° |
| 2026-04-20 00:30 | -17.47551 | -53.10708 | 36097 ft | 498 kts | 296° |
| 2026-04-20 00:31 | -17.44106 | -53.17030 | 36096 ft | 498 kts | 296° |
| 2026-04-20 00:31 | -17.40694 | -53.23286 | 36089 ft | 498 kts | 296° |
| 2026-04-20 00:32 | -17.37253 | -53.29591 | 36084 ft | 497 kts | 296° |
| 2026-04-20 00:32 | -17.33825 | -53.35863 | 36081 ft | 498 kts | 296° |
| 2026-04-20 00:33 | -17.30387 | -53.42148 | 36077 ft | 498 kts | 296° |
| 2026-04-20 00:33 | -17.26962 | -53.48405 | 36077 ft | 498 kts | 296° |
| 2026-04-20 00:34 | -17.23536 | -53.54657 | 36077 ft | 497 kts | 296° |
| 2026-04-20 00:34 | -17.20081 | -53.60957 | 36080 ft | 498 kts | 296° |
| 2026-04-20 00:35 | -17.16650 | -53.67206 | 36089 ft | 498 kts | 296° |
| 2026-04-20 00:35 | -17.13187 | -53.73507 | 36087 ft | 498 kts | 296° |
| 2026-04-20 00:36 | -17.09755 | -53.79747 | 36083 ft | 497 kts | 296° |
| 2026-04-20 00:36 | -17.06303 | -53.86017 | 36086 ft | 499 kts | 296° |
| 2026-04-20 00:37 | -17.02862 | -53.92260 | 36090 ft | 498 kts | 296° |
| 2026-04-20 00:37 | -16.99409 | -53.98521 | 36088 ft | 499 kts | 296° |
| 2026-04-20 00:38 | -16.95951 | -54.04787 | 36084 ft | 499 kts | 297° |
| 2026-04-20 00:38 | -16.92479 | -54.11069 | 36065 ft | 500 kts | 297° |
| 2026-04-20 00:39 | -16.89015 | -54.17332 | 36051 ft | 500 kts | 297° |
| 2026-04-20 00:39 | -16.85560 | -54.23573 | 36040 ft | 499 kts | 297° |
| 2026-04-20 00:40 | -16.82088 | -54.29839 | 36021 ft | 499 kts | 297° |
| 2026-04-20 00:40 | -16.78608 | -54.36113 | 36008 ft | 498 kts | 297° |
| 2026-04-20 00:41 | -16.75131 | -54.42377 | 36007 ft | 500 kts | 297° |
| 2026-04-20 00:41 | -16.71657 | -54.48629 | 36004 ft | 500 kts | 297° |
| 2026-04-20 00:42 | -16.68191 | -54.54863 | 36005 ft | 499 kts | 297° |
| 2026-04-20 00:42 | -16.64692 | -54.61148 | 36006 ft | 500 kts | 297° |
| 2026-04-20 00:43 | -16.61200 | -54.67416 | 36014 ft | 500 kts | 297° |
| 2026-04-20 00:43 | -16.57721 | -54.73656 | 36015 ft | 500 kts | 297° |
| 2026-04-20 00:44 | -16.54220 | -54.79927 | 36004 ft | 501 kts | 297° |
| 2026-04-20 00:44 | -16.50727 | -54.86181 | 35988 ft | 501 kts | 297° |
| 2026-04-20 00:45 | -16.47207 | -54.92477 | 35977 ft | 502 kts | 297° |
| 2026-04-20 00:45 | -16.43707 | -54.98729 | 35973 ft | 501 kts | 297° |
| 2026-04-20 00:46 | -16.40211 | -55.04971 | 35977 ft | 501 kts | 297° |
| 2026-04-20 00:46 | -16.36699 | -55.11234 | 35983 ft | 501 kts | 297° |
| 2026-04-20 00:47 | -16.33181 | -55.17505 | 35989 ft | 501 kts | 297° |
| 2026-04-20 00:47 | -16.29682 | -55.23735 | 35994 ft | 501 kts | 297° |
| 2026-04-20 00:48 | -16.26162 | -55.29996 | 36001 ft | 501 kts | 298° |
| 2026-04-20 00:48 | -16.22640 | -55.36257 | 36009 ft | 502 kts | 298° |
| 2026-04-20 00:49 | -16.19115 | -55.42516 | 36013 ft | 502 kts | 298° |
| 2026-04-20 00:49 | -16.15582 | -55.48786 | 36009 ft | 503 kts | 298° |
| 2026-04-20 00:50 | -16.12049 | -55.55048 | 35998 ft | 503 kts | 298° |
| 2026-04-20 00:50 | -16.08509 | -55.61319 | 35985 ft | 503 kts | 298° |
| 2026-04-20 00:51 | -16.04968 | -55.67586 | 35985 ft | 503 kts | 298° |
| 2026-04-20 00:51 | -16.01452 | -55.73801 | 35978 ft | 503 kts | 298° |
| 2026-04-20 00:52 | -15.97894 | -55.80088 | 35974 ft | 503 kts | 298° |
| 2026-04-20 00:52 | -15.94354 | -55.86335 | 35962 ft | 504 kts | 298° |
| 2026-04-20 00:53 | -15.90795 | -55.92612 | 35959 ft | 504 kts | 298° |
| 2026-04-20 00:53 | -15.87237 | -55.98879 | 35953 ft | 504 kts | 298° |
| 2026-04-20 00:54 | -15.83686 | -56.05132 | 35953 ft | 505 kts | 298° |
| 2026-04-20 00:54 | -15.80105 | -56.11432 | 35951 ft | 505 kts | 298° |
| 2026-04-20 00:55 | -15.76542 | -56.17695 | 35952 ft | 504 kts | 298° |
| 2026-04-20 00:55 | -15.72988 | -56.23935 | 35951 ft | 506 kts | 298° |
| 2026-04-20 00:56 | -15.69406 | -56.30220 | 35954 ft | 506 kts | 298° |
| 2026-04-20 00:56 | -15.65835 | -56.36479 | 35949 ft | 506 kts | 298° |
| 2026-04-20 00:57 | -15.62249 | -56.42762 | 35956 ft | 507 kts | 299° |
| 2026-04-20 00:57 | -15.58676 | -56.49013 | 35949 ft | 506 kts | 299° |
| 2026-04-20 00:58 | -15.55085 | -56.55291 | 35960 ft | 507 kts | 299° |
| 2026-04-20 00:58 | -15.51487 | -56.61579 | 35960 ft | 507 kts | 299° |
| 2026-04-20 00:59 | -15.47886 | -56.67863 | 35973 ft | 508 kts | 299° |
| 2026-04-20 00:59 | -15.44306 | -56.74108 | 35973 ft | 506 kts | 299° |
| 2026-04-20 01:00 | -15.40708 | -56.80379 | 35969 ft | 507 kts | 299° |
| 2026-04-20 01:00 | -15.37091 | -56.86677 | 35975 ft | 508 kts | 299° |
| 2026-04-20 01:01 | -15.33490 | -56.92941 | 35975 ft | 509 kts | 300° |
| 2026-04-20 01:01 | -15.29871 | -56.99233 | 35963 ft | 509 kts | 300° |
| 2026-04-20 01:02 | -15.26230 | -57.05555 | 35945 ft | 509 kts | 300° |
| 2026-04-20 01:02 | -15.22597 | -57.11861 | 35943 ft | 509 kts | 300° |
| 2026-04-20 01:03 | -15.18983 | -57.18127 | 35941 ft | 508 kts | 300° |
| 2026-04-20 01:03 | -15.15365 | -57.24397 | 35952 ft | 509 kts | 300° |
| 2026-04-20 01:04 | -15.11732 | -57.30686 | 35969 ft | 509 kts | 300° |
| 2026-04-20 01:04 | -15.08118 | -57.36938 | 35964 ft | 509 kts | 300° |
| 2026-04-20 01:05 | -15.04470 | -57.43242 | 35968 ft | 509 kts | 300° |
| 2026-04-20 01:05 | -15.00840 | -57.49510 | 35969 ft | 510 kts | 300° |
| 2026-04-20 01:06 | -14.96881 | -57.55553 | 35988 ft | 512 kts | 310° |
| 2026-04-20 01:06 | -14.92101 | -57.61060 | 35978 ft | 511 kts | 311° |
| 2026-04-20 01:07 | -14.87324 | -57.66468 | 35981 ft | 512 kts | 311° |
| 2026-04-20 01:07 | -14.82499 | -57.71892 | 35984 ft | 512 kts | 311° |
| 2026-04-20 01:08 | -14.77689 | -57.77280 | 35984 ft | 510 kts | 311° |
| 2026-04-20 01:08 | -14.72856 | -57.82685 | 35989 ft | 511 kts | 311° |
| 2026-04-20 01:09 | -14.68038 | -57.88067 | 35999 ft | 511 kts | 312° |
| 2026-04-20 01:09 | -14.63190 | -57.93477 | 36012 ft | 511 kts | 311° |
| 2026-04-20 01:10 | -14.58375 | -57.98848 | 36022 ft | 511 kts | 312° |
| 2026-04-20 01:10 | -14.51140 | -58.06910 | 36035 ft | 511 kts | 312° |
| 2026-04-20 01:11 | -14.46310 | -58.12287 | 36041 ft | 511 kts | 312° |
| 2026-04-20 01:11 | -14.41452 | -58.17691 | 36044 ft | 511 kts | 312° |
| 2026-04-20 01:12 | -14.36623 | -58.23060 | 36050 ft | 510 kts | 312° |
| 2026-04-20 01:12 | -14.31798 | -58.28421 | 36050 ft | 509 kts | 312° |
| 2026-04-20 01:13 | -14.26950 | -58.33803 | 36052 ft | 509 kts | 312° |
| 2026-04-20 01:13 | -14.22159 | -58.39119 | 36053 ft | 509 kts | 312° |
| 2026-04-20 01:14 | -14.17321 | -58.44484 | 36056 ft | 510 kts | 312° |
| 2026-04-20 01:14 | -14.12508 | -58.49816 | 36055 ft | 510 kts | 312° |
| 2026-04-20 01:15 | -14.07681 | -58.55161 | 36050 ft | 509 kts | 312° |
| 2026-04-20 01:15 | -14.02858 | -58.60498 | 36052 ft | 510 kts | 312° |
| 2026-04-20 01:16 | -13.98026 | -58.65840 | 36054 ft | 509 kts | 313° |
| 2026-04-20 01:16 | -13.93190 | -58.71184 | 36055 ft | 510 kts | 313° |
| 2026-04-20 01:17 | -13.88356 | -58.76523 | 36058 ft | 510 kts | 313° |
| 2026-04-20 01:17 | -13.83547 | -58.81830 | 36054 ft | 510 kts | 313° |
| 2026-04-20 01:18 | -13.78718 | -58.87156 | 36047 ft | 510 kts | 313° |
| 2026-04-20 01:18 | -13.73850 | -58.92522 | 36036 ft | 510 kts | 313° |
| 2026-04-20 01:19 | -13.69028 | -58.97833 | 36029 ft | 511 kts | 313° |
| 2026-04-20 01:19 | -13.64166 | -59.03184 | 36029 ft | 512 kts | 313° |
| 2026-04-20 01:20 | -13.59303 | -59.08534 | 36030 ft | 512 kts | 313° |
| 2026-04-20 01:20 | -13.54448 | -59.13871 | 36031 ft | 510 kts | 313° |
| 2026-04-20 01:21 | -13.49602 | -59.19194 | 36035 ft | 511 kts | 313° |
| 2026-04-20 01:21 | -13.44732 | -59.24541 | 36034 ft | 512 kts | 313° |
| 2026-04-20 01:22 | -13.39872 | -59.29874 | 36032 ft | 511 kts | 313° |
| 2026-04-20 01:22 | -13.35029 | -59.35184 | 36030 ft | 512 kts | 313° |
| 2026-04-20 01:23 | -13.30136 | -59.40546 | 36031 ft | 512 kts | 313° |
| 2026-04-20 01:23 | -13.25302 | -59.45840 | 36029 ft | 511 kts | 313° |
| 2026-04-20 01:24 | -13.20426 | -59.51176 | 36028 ft | 511 kts | 313° |
| 2026-04-20 01:24 | -13.15567 | -59.56491 | 36031 ft | 512 kts | 313° |
| 2026-04-20 01:25 | -13.10675 | -59.61838 | 36037 ft | 512 kts | 313° |
| 2026-04-20 01:25 | -13.05806 | -59.67157 | 36044 ft | 512 kts | 313° |
| 2026-04-20 01:26 | -13.00945 | -59.72464 | 36043 ft | 512 kts | 313° |
| 2026-04-20 01:26 | -12.96073 | -59.77779 | 36041 ft | 511 kts | 313° |
| 2026-04-20 01:27 | -12.91208 | -59.83084 | 36042 ft | 511 kts | 313° |
| 2026-04-20 01:27 | -12.86332 | -59.88398 | 36043 ft | 511 kts | 313° |
| 2026-04-20 01:28 | -12.81458 | -59.93705 | 36044 ft | 512 kts | 313° |
| 2026-04-20 01:28 | -12.76574 | -59.99021 | 36041 ft | 512 kts | 313° |
| 2026-04-20 01:29 | -12.71702 | -60.04321 | 36042 ft | 512 kts | 313° |
| 2026-04-20 01:29 | -12.66833 | -60.09604 | 36041 ft | 510 kts | 315° |
| 2026-04-20 01:30 | -12.61744 | -60.14689 | 36038 ft | 512 kts | 316° |
| 2026-04-20 01:30 | -12.56644 | -60.19809 | 36043 ft | 511 kts | 316° |
| 2026-04-20 01:31 | -12.51576 | -60.24903 | 36036 ft | 512 kts | 316° |
| 2026-04-20 01:31 | -12.46483 | -60.30022 | 36038 ft | 512 kts | 316° |
| 2026-04-20 01:32 | -12.41410 | -60.35120 | 36031 ft | 512 kts | 315° |
| 2026-04-20 01:32 | -12.36349 | -60.40204 | 36020 ft | 513 kts | 316° |
| 2026-04-20 01:33 | -12.31251 | -60.45322 | 36022 ft | 511 kts | 316° |
| 2026-04-20 01:33 | -12.26192 | -60.50397 | 36017 ft | 512 kts | 316° |
| 2026-04-20 01:34 | -12.21118 | -60.55485 | 36016 ft | 513 kts | 316° |
| 2026-04-20 01:34 | -12.16016 | -60.60599 | 36012 ft | 513 kts | 316° |
| 2026-04-20 01:35 | -12.10930 | -60.65693 | 36010 ft | 513 kts | 316° |
| 2026-04-20 01:35 | -12.05833 | -60.70796 | 36012 ft | 512 kts | 316° |
| 2026-04-20 01:36 | -12.00720 | -60.75911 | 36005 ft | 513 kts | 316° |
| 2026-04-20 01:36 | -11.95633 | -60.80999 | 36003 ft | 512 kts | 316° |
| 2026-04-20 01:37 | -11.90555 | -60.86074 | 35998 ft | 512 kts | 316° |
| 2026-04-20 01:37 | -11.85436 | -60.91187 | 35996 ft | 513 kts | 316° |
| 2026-04-20 01:38 | -11.80346 | -60.96268 | 35993 ft | 513 kts | 316° |
| 2026-04-20 01:38 | -11.75268 | -61.01334 | 35990 ft | 513 kts | 316° |
| 2026-04-20 01:39 | -11.70148 | -61.06441 | 35990 ft | 512 kts | 316° |
| 2026-04-20 01:39 | -11.65068 | -61.11504 | 35993 ft | 512 kts | 316° |
| 2026-04-20 01:40 | -11.59934 | -61.16617 | 35992 ft | 513 kts | 316° |
| 2026-04-20 01:40 | -11.54843 | -61.21686 | 35992 ft | 513 kts | 316° |
| 2026-04-20 01:41 | -11.49742 | -61.26762 | 35991 ft | 513 kts | 316° |
| 2026-04-20 01:41 | -11.44643 | -61.31834 | 35990 ft | 513 kts | 316° |
| 2026-04-20 01:42 | -11.39541 | -61.36905 | 35992 ft | 513 kts | 316° |
| 2026-04-20 01:42 | -11.34423 | -61.41988 | 35994 ft | 514 kts | 316° |
| 2026-04-20 01:43 | -11.29308 | -61.47068 | 35995 ft | 514 kts | 316° |
| 2026-04-20 01:43 | -11.24162 | -61.52175 | 36001 ft | 514 kts | 316° |
| 2026-04-20 01:44 | -11.19039 | -61.57255 | 36002 ft | 515 kts | 316° |
| 2026-04-20 01:44 | -11.13926 | -61.62326 | 35998 ft | 514 kts | 316° |
| 2026-04-20 01:45 | -11.08821 | -61.67383 | 35993 ft | 514 kts | 317° |
| 2026-04-20 01:45 | -11.03680 | -61.72474 | 35993 ft | 515 kts | 316° |
| 2026-04-20 01:46 | -10.98546 | -61.77557 | 35989 ft | 515 kts | 316° |
| 2026-04-20 01:46 | -10.93388 | -61.82659 | 35992 ft | 516 kts | 316° |
| 2026-04-20 01:47 | -10.88247 | -61.87742 | 35993 ft | 515 kts | 316° |
| 2026-04-20 01:47 | -10.83118 | -61.92812 | 35992 ft | 515 kts | 317° |
| 2026-04-20 01:48 | -10.77981 | -61.97886 | 35993 ft | 516 kts | 316° |
| 2026-04-20 01:48 | -10.72837 | -62.02965 | 35995 ft | 516 kts | 316° |
| 2026-04-20 01:49 | -10.67664 | -62.08069 | 35998 ft | 516 kts | 316° |
| 2026-04-20 01:49 | -10.62531 | -62.13134 | 36000 ft | 516 kts | 317° |
| 2026-04-20 01:50 | -10.56803 | -62.18780 | 36006 ft | 517 kts | 317° |
| 2026-04-20 01:50 | -10.51264 | -62.24238 | 36012 ft | 517 kts | 317° |
| 2026-04-20 01:51 | -10.46088 | -62.29318 | 36005 ft | 516 kts | 317° |
| 2026-04-20 01:51 | -10.40933 | -62.34385 | 36003 ft | 517 kts | 317° |
| 2026-04-20 01:52 | -10.35767 | -62.39466 | 35997 ft | 517 kts | 317° |
| 2026-04-20 01:52 | -10.30582 | -62.44565 | 35992 ft | 518 kts | 317° |
| 2026-04-20 01:53 | -10.25415 | -62.49645 | 35992 ft | 518 kts | 317° |
| 2026-04-20 01:53 | -10.20219 | -62.54750 | 35992 ft | 519 kts | 317° |
| 2026-04-20 01:54 | -10.15030 | -62.59847 | 35989 ft | 519 kts | 317° |
| 2026-04-20 01:54 | -10.09843 | -62.64939 | 35989 ft | 519 kts | 317° |
| 2026-04-20 01:55 | -10.04650 | -62.70036 | 35987 ft | 519 kts | 317° |
| 2026-04-20 01:55 | -9.99462 | -62.75123 | 35986 ft | 519 kts | 317° |
| 2026-04-20 01:56 | -9.94294 | -62.80190 | 35985 ft | 519 kts | 317° |
| 2026-04-20 01:56 | -9.89092 | -62.85288 | 35986 ft | 520 kts | 317° |
| 2026-04-20 01:57 | -9.83882 | -62.90391 | 35984 ft | 521 kts | 317° |
| 2026-04-20 01:57 | -9.78675 | -62.95488 | 35987 ft | 520 kts | 317° |
| 2026-04-20 01:58 | -9.73459 | -63.00592 | 35987 ft | 520 kts | 317° |
| 2026-04-20 01:58 | -9.68311 | -63.05707 | 35547 ft | 511 kts | 316° |
| 2026-04-20 01:59 | -9.65794 | -63.08229 | 34597 ft | 504 kts | 316° |
| 2026-04-20 01:59 | -9.63326 | -63.10709 | 33665 ft | 498 kts | 316° |
| 2026-04-20 01:59 | -9.60881 | -63.13176 | 32753 ft | 492 kts | 316° |
| 2026-04-20 01:59 | -9.58474 | -63.15602 | 31953 ft | 486 kts | 316° |
| 2026-04-20 02:00 | -9.56124 | -63.17978 | 31185 ft | 481 kts | 316° |
| 2026-04-20 02:00 | -9.53775 | -63.20349 | 30425 ft | 475 kts | 316° |
| 2026-04-20 02:00 | -9.51435 | -63.22702 | 29671 ft | 469 kts | 316° |
| 2026-04-20 02:00 | -9.49151 | -63.24993 | 28936 ft | 463 kts | 316° |
| 2026-04-20 02:01 | -9.46873 | -63.27275 | 28218 ft | 458 kts | 316° |
| 2026-04-20 02:01 | -9.44608 | -63.29539 | 27510 ft | 452 kts | 316° |
| 2026-04-20 02:01 | -9.42400 | -63.31744 | 26814 ft | 447 kts | 316° |
| 2026-04-20 02:01 | -9.40187 | -63.33955 | 26111 ft | 442 kts | 316° |
| 2026-04-20 02:02 | -9.38015 | -63.36125 | 25419 ft | 437 kts | 316° |
| 2026-04-20 02:02 | -9.35875 | -63.38264 | 24732 ft | 432 kts | 316° |
| 2026-04-20 02:02 | -9.33748 | -63.40384 | 24047 ft | 428 kts | 316° |
| 2026-04-20 02:02 | -9.31649 | -63.42473 | 23378 ft | 424 kts | 316° |
| 2026-04-20 02:03 | -9.29543 | -63.44567 | 22718 ft | 419 kts | 317° |
| 2026-04-20 02:03 | -9.27484 | -63.46616 | 22078 ft | 415 kts | 316° |
| 2026-04-20 02:03 | -9.25427 | -63.48653 | 21453 ft | 411 kts | 316° |
| 2026-04-20 02:03 | -9.23385 | -63.50674 | 20829 ft | 408 kts | 316° |
| 2026-04-20 02:04 | -9.21359 | -63.52667 | 20210 ft | 404 kts | 316° |
| 2026-04-20 02:04 | -9.19357 | -63.54630 | 19594 ft | 400 kts | 316° |
| 2026-04-20 02:04 | -9.17370 | -63.56571 | 18981 ft | 397 kts | 317° |
| 2026-04-20 02:04 | -9.15408 | -63.58480 | 18375 ft | 393 kts | 316° |
| 2026-04-20 02:05 | -9.13425 | -63.60401 | 17763 ft | 390 kts | 316° |
| 2026-04-20 02:05 | -9.11484 | -63.62272 | 17163 ft | 386 kts | 316° |
| 2026-04-20 02:05 | -9.09547 | -63.64140 | 16470 ft | 379 kts | 316° |
| 2026-04-20 02:05 | -9.07686 | -63.65934 | 15693 ft | 367 kts | 317° |
| 2026-04-20 02:06 | -9.05858 | -63.67699 | 14909 ft | 357 kts | 317° |
| 2026-04-20 02:06 | -9.04079 | -63.69423 | 14122 ft | 349 kts | 317° |
| 2026-04-20 02:06 | -9.02364 | -63.71098 | 13343 ft | 341 kts | 317° |
| 2026-04-20 02:06 | -9.00691 | -63.72741 | 12561 ft | 334 kts | 317° |
| 2026-04-20 02:07 | -8.99030 | -63.74377 | 11772 ft | 328 kts | 317° |
| 2026-04-20 02:07 | -8.97424 | -63.75956 | 11002 ft | 322 kts | 317° |
| 2026-04-20 02:07 | -8.95836 | -63.77514 | 10234 ft | 317 kts | 317° |
| 2026-04-20 02:07 | -8.94273 | -63.79055 | 9467 ft | 312 kts | 317° |
| 2026-04-20 02:08 | -8.92736 | -63.80567 | 8707 ft | 308 kts | 317° |
| 2026-04-20 02:08 | -8.91224 | -63.82083 | 7941 ft | 303 kts | 311° |
| 2026-04-20 02:08 | -8.90167 | -63.83885 | 7194 ft | 299 kts | 299° |
| 2026-04-20 02:08 | -8.89252 | -63.85718 | 6595 ft | 273 kts | 298° |
| 2026-04-20 02:09 | -8.88451 | -63.87361 | 6092 ft | 247 kts | 299° |
| 2026-04-20 02:09 | -8.87457 | -63.88628 | 5509 ft | 225 kts | 331° |
| 2026-04-20 02:09 | -8.86003 | -63.88998 | 4944 ft | 209 kts | 356° |
| 2026-04-20 02:09 | -8.84626 | -63.89139 | 4543 ft | 190 kts | 354° |
| 2026-04-20 02:10 | -8.83346 | -63.89277 | 4093 ft | 180 kts | 354° |
| 2026-04-20 02:10 | -8.82111 | -63.89410 | 3626 ft | 178 kts | 354° |
| 2026-04-20 02:10 | -8.80893 | -63.89541 | 3167 ft | 177 kts | 354° |
| 2026-04-20 02:10 | -8.79678 | -63.89667 | 2535 ft | 176 kts | 354° |
| 2026-04-20 02:11 | -8.78463 | -63.89806 | 1805 ft | 178 kts | 354° |
| 2026-04-20 02:11 | -8.77245 | -63.89936 | 1181 ft | 175 kts | 353° |
| 2026-04-20 02:11 | -8.76100 | -63.90015 | 834 ft | 154 kts | 357° |
| 2026-04-20 02:11 | -8.75054 | -63.90044 | 639 ft | 145 kts | 359° |
| 2026-04-20 02:12 | -8.74030 | -63.90068 | 621 ft | 150 kts | 358° |
| 2026-04-20 02:12 | -8.73026 | -63.90112 | 508 ft | 138 kts | 356° |
| 2026-04-20 02:12 | -8.72090 | -63.90171 | 337 ft | 131 kts | 357° |
| 2026-04-20 02:12 | -8.71242 | -63.90217 | 298 ft | 96 kts | 358° |
| 2026-04-20 02:13 | -8.70725 | -63.90250 | 305 ft | 54 kts | 355° |
| 2026-04-20 02:13 | -8.70460 | -63.90263 | 306 ft | 24 kts | 356° |
| 2026-04-20 02:13 | -8.70325 | -63.90257 | 306 ft | 11 kts | 39° |
| 2026-04-20 02:13 | -8.70312 | -63.90204 | 305 ft | 7 kts | 94° |
| 2026-04-20 02:14 | -8.70310 | -63.90169 | 305 ft | 0 kts | 81° |
| 2026-04-20 02:15 | -8.70310 | -63.90168 | 304 ft | 0 kts | 82° |
| 2026-04-20 02:15 | -8.70308 | -63.90154 | 304 ft | 2 kts | 86° |
| 2026-04-20 02:16 | -8.70308 | -63.90152 | 304 ft | 0 kts | 86° |
| 2026-04-20 02:16 | -8.70328 | -63.90131 | 304 ft | 9 kts | 159° |
| 2026-04-20 02:16 | -8.70410 | -63.90121 | 303 ft | 12 kts | 178° |
| 2026-04-20 02:17 | -8.70498 | -63.90116 | 302 ft | 12 kts | 176° |
| 2026-04-20 02:17 | -8.70590 | -63.90112 | 302 ft | 13 kts | 178° |
| 2026-04-20 02:17 | -8.70692 | -63.90105 | 300 ft | 15 kts | 175° |
| 2026-04-20 02:17 | -8.70800 | -63.90098 | 300 ft | 15 kts | 176° |
| 2026-04-20 02:18 | -8.70910 | -63.90092 | 300 ft | 15 kts | 175° |
| 2026-04-20 02:18 | -8.71022 | -63.90083 | 300 ft | 16 kts | 176° |
| 2026-04-20 02:18 | -8.71137 | -63.90077 | 299 ft | 17 kts | 178° |
| 2026-04-20 02:18 | -8.71260 | -63.90070 | 298 ft | 17 kts | 174° |
| 2026-04-20 02:19 | -8.71372 | -63.90063 | 298 ft | 12 kts | 178° |
| 2026-04-20 02:19 | -8.71419 | -63.90045 | 298 ft | 4 kts | 100° |
| 2026-04-20 02:19 | -8.71418 | -63.90010 | 298 ft | 6 kts | 89° |
| 2026-04-20 02:19 | -8.71415 | -63.89968 | 298 ft | 4 kts | 86° |
| 2026-04-20 02:20 | -8.71414 | -63.89953 | 298 ft | 0 kts | 87° |
| 2026-04-20 02:20 | -8.71414 | -63.89949 | 298 ft | 0 kts | 88° |